Littlerock, Washington
Current Conditions -  °F | °C
As of 11:54 PM on Thursday 30 Oct 2014 (Local Time) from KOLM Reporting Station
Light Rain Light Rain  
Wind Chill: 52°   Ceiling: 4700
Heat Index: 52°   Visibility: 9mi
Dew Point: 51°   Wind: 5mph
Humidity: 97%   Direction: 160°SSE
Pressure: 29.77"   Gusts: NA
Location:  46.9°N, 123.02°W
Report Text: KOLM 310654Z AUTO 16004KT 9SM -RA OVC047 11/11 A2977 RMK AO2 SLP081 P0002 T01110106
Loading
Personal Weather Stations






























Interactive Weather Map
Tropical Storm Tracking
New forecast layout! Learn more

10-Day Weather Forecast

Advertisements
Track Severe Weather on mobile